• Join FlightAware (Why Join?)
  • Login
  • US Flag 
01:14AM EDT


 

Airport Tracker/Info


-or-


 

Live Flight TrackerFlight Track Log ✈ GJS3649 ✈ 30-Jun-2013 ✈ KORD - KRDU

Flight Track Log - Related Links

Times and Time Zones

All times are in EDT time to prevent confusion due to time zone crossing. See the GJS3649 flight status page for this flight to view local times or setup timezone preferences in your user account.

Time Position Orientation Groundspeed Altitude Reporting Facility
EDT Latitude Longitude Course Direction KTS MPH feet Rate Location/Type
09:22PM 41.9667 -87.8667 143° Southeast 190 219 2,700  Level Chicago TRACON
09:23PM 41.9167 -87.8167 143° Southeast 223 257 5,000 1,500 Climbing Chicago TRACON
09:24PM 41.8500 -87.8000 169° South 272 313 5,700 1,500 Climbing Chicago TRACON
09:25PM 41.7847 -87.8242 195° South 285 328 8,200 2,460 Climbing Chicago Center
09:26PM 41.7114 -87.7922 162° South 287 330 10,900 2,100 Climbing Chicago Center
09:27PM 41.6394 -87.7350 149° Southeast 299 344 12,600 1,920 Climbing Chicago Center
09:28PM 41.5358 -87.6564 150° Southeast 352 405 14,900 2,160 Climbing Chicago Center
09:29PM 41.4472 -87.5881 150° Southeast 363 418 17,100 1,980 Climbing Chicago Center
09:30PM 41.3425 -87.5594 168° South 387 445 19,100 1,740 Climbing Chicago Center
09:31PM 41.2347 -87.5403 172° South 389 448 20,700 1,560 Climbing Chicago Center
09:32PM 41.1242 -87.5125 169° South 400 460 22,400 1,500 Climbing Chicago Center
09:33PM 41.0108 -87.4822 169° South 413 475 23,800 1,380 Climbing Chicago Center
09:34PM 40.8961 -87.4489 168° South 421 484 25,300 1,320 Climbing Chicago Center
09:36PM 40.7542 -87.4153 170° South 432 497 26,600 1,200 Climbing Chicago Center
09:37PM 40.6331 -87.3822 168° South 442 509 27,800 1,260 Climbing Chicago Center
09:38PM 40.5119 -87.3519 169° South 443 510 29,200 1,200 Climbing Chicago Center
09:39PM 40.3825 -87.3117 167° South 446 513 30,400 1,260 Climbing Chicago Center
09:40PM 40.2597 -87.2908 173° South 446 513 31,900 1,380 Climbing Chicago Center
09:41PM 40.1428 -87.2656 171° South 430 495 33,300 1,560 Climbing Chicago Center
09:41PM 40.0492 -87.2486 172° South 426 490 34,700 1,680 Climbing Indianapolis Center
09:42PM 39.9386 -87.2258 171° South 414 476 36,400 1,140 Climbing Indianapolis Center
09:43PM 39.8342 -87.1883 165° South 404 465 37,100 600 Climbing Indianapolis Center
09:44PM 39.7531 -87.0906 137° Southeast 405 466 37,700 420 Climbing Indianapolis Center
09:45PM 39.6994 -86.9528 117° Southeast 429 494 38,000 120 Climbing Indianapolis Center
09:46PM 39.6475 -86.8128 116° Southeast 433 498 38,000  Level Indianapolis Center
09:48PM 39.5928 -86.6686 116° Southeast 446 513 38,000  Level Indianapolis Center
09:49PM 39.5267 -86.4983 117° Southeast 447 514 38,000  Level Indianapolis Center
09:50PM 39.4733 -86.3608 117° Southeast 438 504 38,000  Level Indianapolis Center
09:51PM 39.4206 -86.2253 117° Southeast 429 494 38,000  Level Indianapolis Center
09:52PM 39.3692 -86.0925 117° Southeast 420 483 38,000  Level Indianapolis Center
09:53PM 39.3169 -85.9614 117° Southeast 415 478 38,000  Level Indianapolis Center
09:54PM 39.2639 -85.8272 117° Southeast 420 483 38,000  Level Indianapolis Center
09:55PM 39.2103 -85.6906 117° Southeast 428 493 38,000  Level Indianapolis Center
09:56PM 39.1550 -85.5525 117° Southeast 433 498 38,000  Level Indianapolis Center
09:57PM 39.0897 -85.3883 117° Southeast 432 497 38,000 360 Level Indianapolis Center
09:58PM 39.0342 -85.2503 117° Southeast 436 502 38,800 480 Climbing Indianapolis Center
09:59PM 38.9808 -85.1172 117° Southeast 423 487 39,000 60 Climbing Indianapolis Center
10:00PM 38.9253 -84.9842 118° Southeast 424 488 39,000  Level Indianapolis Center
10:01PM 38.8719 -84.8508 117° Southeast 421 484 39,000  Level Indianapolis Center
10:02PM 38.8161 -84.7175 118° Southeast 424 488 39,000  Level Indianapolis Center
10:03PM 38.7619 -84.5836 117° Southeast 425 489 39,000  Level Indianapolis Center
10:04PM 38.7064 -84.4478 118° Southeast 429 494 39,000  Level Indianapolis Center
10:05PM 38.6506 -84.3122 118° Southeast 428 493 39,000  Level Indianapolis Center
10:06PM 38.6092 -84.1517 108° East 446 513 39,000  Level Indianapolis Center
10:07PM 38.5714 -84.0011 108° East 445 512 39,000  Level Indianapolis Center
10:08PM 38.5314 -83.8500 109° East 447 514 39,000  Level Indianapolis Center
10:09PM 38.4856 -83.6764 109° East 443 510 39,000  Level Indianapolis Center
10:10PM 38.4469 -83.5286 108° East 438 504 39,000  Level Indianapolis Center
10:11PM 38.4081 -83.3842 109° East 432 497 39,000  Level Indianapolis Center
10:12PM 38.3689 -83.2389 109° East 432 497 39,000 -300 Level Indianapolis Center
10:13PM 38.3269 -83.1003 111° Southeast 423 487 38,500 -780 Descending Indianapolis Center
10:14PM 38.2819 -82.9586 112° Southeast 428 493 37,500 -1,020 Descending Indianapolis Center
10:15PM 38.2378 -82.8164 112° Southeast 433 498 36,500 -1,020 Descending Indianapolis Center
10:16PM 38.1944 -82.6731 111° Southeast 434 499 35,500 -1,020 Descending Indianapolis Center
10:17PM 38.1483 -82.5278 112° Southeast 438 504 34,500 -1,140 Descending Indianapolis Center
10:18PM 38.1028 -82.3839 112° Southeast 439 505 33,200 -780 Descending Indianapolis Center
10:19PM 38.0572 -82.2378 112° Southeast 444 511 33,000 -120 Descending Indianapolis Center
10:20PM 38.0100 -82.0889 112° Southeast 440 506 33,000  Level Indianapolis Center
10:21PM 37.9653 -81.9503 112° Southeast 430 495 33,000 -360 Level Indianapolis Center
10:22PM 37.9200 -81.8100 112° Southeast 431 496 32,300 -840 Descending Indianapolis Center
10:23PM 37.8756 -81.6706 112° Southeast 429 494 31,300 -1,080 Descending Indianapolis Center
10:24PM 37.8239 -81.5117 112° Southeast 427 491 30,200 -1,080 Descending Indianapolis Center
10:25PM 37.7778 -81.3750 113° Southeast 439 505 29,200 -600 Descending Indianapolis Center
10:26PM 37.7322 -81.2353 112° Southeast 443 510 29,000 -120 Descending Indianapolis Center
10:27PM 37.6861 -81.0931 112° Southeast 448 516 29,000  Level Indianapolis Center
10:28PM 37.6292 -80.9225 113° Southeast 452 520 29,000  Level Indianapolis Center
10:29PM 37.5828 -80.7800 112° Southeast 453 521 29,000  Level Indianapolis Center
10:30PM 37.5342 -80.6378 113° Southeast 454 522 29,000  Level Indianapolis Center
10:31PM 37.5033 -80.5528 115° Southeast 450 518 29,000 -660 Level Washington Center
10:32PM 37.4547 -80.4111 113° Southeast 443 510 28,000 -1,140 Descending Washington Center
10:33PM 37.4044 -80.2589 113° Southeast 438 504 26,800 -1,080 Descending Washington Center
10:34PM 37.3597 -80.1228 112° Southeast 427 491 25,900 -1,020 Descending Washington Center
10:35PM 37.2975 -80.0017 123° Southeast 420 483 24,900 -1,020 Descending Washington Center
10:36PM 37.2325 -79.8986 128° Southeast 414 476 24,000 -960 Descending Washington Center
10:37PM 37.1611 -79.7878 129° Southeast 414 476 23,000 -540 Descending Washington Center
10:38PM 37.0789 -79.6922 137° Southeast 408 470 23,000  Level Washington Center
10:39PM 36.9906 -79.5914 138° Southeast 394 453 23,000  Level Washington Center
10:40PM 36.9122 -79.5014 137° Southeast 394 453 23,000 -960 Level Washington Center
10:41PM 36.8336 -79.4144 138° Southeast 394 453 21,100 -1,920 Descending Washington Center
10:42PM 36.7569 -79.3303 139° Southeast 384 442 19,200 -2,040 Descending Washington Center
10:43PM 36.6883 -79.2569 139° Southeast 369 425 17,100 -1,920 Descending Washington Center
10:44PM 36.6319 -79.1947 138° Southeast 353 406 16,000 -1,920 Descending Washington Center
10:45PM 36.5369 -79.0897 138° Southeast 352 405 13,300 -2,100 Descending Washington Center
10:45PM 36.5369 -79.0897 138° Southeast 349 402 13,300 -1,680 Level Washington Center
10:46PM 36.4722 -79.0169 138° Southeast 338 389 11,800 -1,620 Descending Washington Center
10:47PM 36.4075 -78.9444 138° Southeast 315 362 10,300 -1,440 Descending Washington Center
10:48PM 36.3489 -78.8800 138° Southeast 279 321 9,000 -1,500 Descending Washington Center
10:49PM 36.2961 -78.8264 141° Southeast 270 311 7,400 -1,500 Descending Washington Center
10:50PM 36.2369 -78.7672 141° Southeast 270 311 6,100 -1,320 Descending Washington Center
10:51PM 36.1825 -78.7033 137° Southeast 253 291 4,600 -1,080 Descending Washington Center
10:52PM 36.1400 -78.6500 135° Southeast 236 272 3,800 -780 Descending Washington Center
10:53PM 36.0889 -78.6094 147° Southeast 218 251 3,100 -420 Descending Washington Center
10:54PM 36.0281 -78.6200 188° South 199 229 3,000 -60 Descending Washington Center
10:55PM 35.9917 -78.6572 220° Southwest 171 197 3,000 -420 Level Washington Center
10:56PM 35.9572 -78.6969 223° Southwest 163 188 2,200 -720 Descending Washington Center
10:57PM 35.9333 -78.7294 228° Southwest 125 144 1,600 -660 Descending Washington Center
10:58PM 35.9075 -78.7617 225° Southwest 123 142 900 -720 Descending Washington Center
11:00PM 35.8776 -78.7875 90° East  Level Estimated
11:07PM 35.8776 -78.7875 90° East  Level Estimated
11:08PM 35.8776 -78.7875 90° East  Level Estimated